MST,Max TemperatureF,Mean TemperatureF,Min TemperatureF,Max Dew PointF,MeanDew PointF,Min DewpointF,Max Humidity, Mean Humidity, Min Humidity, Max Sea Level PressureIn, Mean Sea Level PressureIn, Min Sea Level PressureIn, Max VisibilityMiles, Mean VisibilityMiles, Min VisibilityMiles, Max Wind SpeedMPH, Mean Wind SpeedMPH, Max Gust SpeedMPH,PrecipitationIn, CloudCover, Events, WindDirDegrees
2011-12-1,60,51,42,40,27,9,92,40,15,29.90,29.70,29.57,10,10,9,32,19,51,0.00,4,Rain,183
2011-12-2,51,43,33,43,35,23,100,79,44,29.94,29.88,29.78,10,7,0,23,8,36,0.02,6,Fog-Rain,287
2011-12-3,48,40,33,34,27,22,93,64,37,30.08,29.99,29.88,10,10,6,16,7,22,0.03,6,Rain,251
2011-12-4,43,36,30,34,31,21,100,89,45,30.09,30.06,30.00,10,4,0,9,4,,0.00,6,Fog,7
2011-12-5,42,34,26,27,22,18,86,67,39,30.20,30.09,30.01,10,10,10,15,6,18,0.00,2,,271
2011-12-6,46,35,24,22,15,7,80,51,21,30.34,30.27,30.21,10,10,10,9,2,,0.00,0,,107
2011-12-7,57,42,26,16,12,10,56,35,16,30.28,30.17,30.05,10,10,10,7,2,,0.00,3,,107
2011-12-8,64,47,30,12,7,-4,47,24,6,30.09,30.05,29.97,10,10,10,12,3,,0.00,3,,211
2011-12-9,60,48,35,18,12,6,35,25,14,30.15,30.10,30.04,10,10,10,9,3,,0.00,5,,138
2011-12-10,,,,,,,,,,,,,,,,,,,0.00,,,-1
2011-12-11,,,,,,,,,,,,,,,,,,,,,,
2011-12-12,51,46,42,43,39,30,100,75,44,29.92,29.88,29.83,10,7,2,29,8,40,0.54,7,Rain,191
2011-12-13,51,43,35,39,36,30,100,79,54,30.04,29.89,29.83,10,7,2,34,19,45,0.71,5,Rain-Snow,237
2011-12-14,48,40,32,34,31,28,93,72,50,30.16,30.11,30.06,10,10,10,13,6,25,0.00,3,,281
2011-12-15,53,42,32,34,31,28,85,68,41,30.14,30.07,29.99,10,10,10,9,4,16,0.00,1,,145
2011-12-16,54,46,37,32,30,28,73,57,40,30.11,30.03,29.94,10,10,10,25,13,29,0.00,1,,128
2011-12-17,59,52,44,40,36,31,71,59,44,30.13,30.07,30.04,10,10,10,24,19,30,0.00,3,,133
2011-12-18,53,45,37,39,35,30,89,74,43,30.04,29.98,29.89,10,10,6,21,10,24,0.12,6,Rain,236
2011-12-19,45,40,35,36,32,29,93,76,58,30.05,29.98,29.90,10,10,10,21,12,21,0.00,6,Rain,270
2011-12-20,51,44,37,36,33,28,93,72,43,29.99,29.93,29.83,10,10,9,13,3,,0.00,4,,152
2011-12-21,51,42,33,34,31,28,83,66,41,30.01,29.93,29.88,10,10,10,15,5,20,0.00,3,Rain,262
2011-12-22,50,42,30,35,30,15,87,66,43,30.09,30.05,30.00,10,10,10,16,6,,0.00,5,,273
2011-12-23,37,32,26,22,18,13,75,61,48,30.35,30.22,30.07,10,10,10,16,9,21,0.00,2,,296
2011-12-24,46,36,26,21,19,14,75,54,35,30.39,30.35,30.29,10,10,10,15,9,21,0.00,0,,125
2011-12-25,51,40,28,14,10,6,49,32,18,30.38,30.31,30.23,10,10,10,18,11,24,0.00,0,,129
2011-12-26,60,44,27,17,12,7,56,32,13,30.32,30.25,30.19,10,10,10,12,4,,0.00,0,,135
2011-12-27,66,50,33,16,9,1,48,23,10,30.25,30.18,30.10,10,10,10,13,5,,0.00,1,,228
2011-12-28,66,51,36,16,10,4,41,22,9,30.23,30.16,30.01,10,10,10,10,3,,0.00,0,,147
2011-12-29,71,55,39,18,13,7,38,21,8,30.13,30.04,29.95,10,10,10,8,3,,0.00,0,,221
2011-12-30,73,58,43,27,22,16,46,28,13,30.11,30.02,29.87,10,10,10,10,6,,0.00,0,,227
2011-12-31,72,60,48,27,25,22,42,31,15,30.15,30.06,29.97,10,10,10,8,4,,0.00,0,,218